test

ENGM 011150Z 10008KT 060V140 9999 FEW020 BKN023 11/07 Q1016 NOSIG